Terminal Aerodrome Forecast
Issued by NWS

Home | Current Version | Previous Version | Graphics & Text | Print | Product List | Glossary On
Versions: 1 2 3 4 5 6 7 8 9 10 11 12 13 14 15 16 17 18 19 20 21 22 23 24 25
000
FTUS43 KPAH 290349 AAC
TAFOWB
TAF AMD
KOWB 290349Z 2904/2924 24004KT P6SM SCT030 BKN050
     FM290600 VRB02KT 4SM BR SCT050 SCT100
      TEMPO 2908/2912 1SM BR BCFG OVC005
     FM291500 27004KT P6SM SCT025=

USA.gov is the U.S. government's official web portal to all federal, state and local government web resources and services.